Time;durP1;ratioP1;P1;durP2;ratioP2;P2;SDS_P1;SDS_P2;PMS_P1;PMS_P2;Temp;Humidity;BMP_temperature;BMP_pressure;BME280_temperature;BME280_humidity;BME280_pressure;Samples;Min_cycle;Max_cycle;Signal;HPM_P1;HPM_P2
2021/09/20 00:01:28;;;;;;;5.65;1.40;;;15.60;70.70;;;;;;4982388;28;96014;-58
2021/09/20 00:03:59;;;;;;;3.13;1.25;;;15.60;70.60;;;;;;4985590;28;95998;-51
2021/09/20 00:06:33;;;;;;;2.75;1.08;;;15.60;70.80;;;;;;4978999;28;97851;-56
2021/09/20 00:09:05;;;;;;;2.88;0.88;;;15.60;70.90;;;;;;4982535;28;96290;-56
2021/09/20 00:11:36;;;;;;;3.55;1.23;;;15.70;71.10;;;;;;4983082;28;95708;-53
2021/09/20 00:14:08;;;;;;;2.67;1.00;;;15.70;71.10;;;;;;4987379;28;96479;-56
2021/09/20 00:16:38;;;;;;;4.32;1.33;;;15.70;71.10;;;;;;4985776;28;97964;-56
2021/09/20 00:19:10;;;;;;;3.33;1.30;;;15.70;71.30;;;;;;4988538;28;95309;-56
2021/09/20 00:21:40;;;;;;;4.93;1.40;;;15.70;71.00;;;;;;4990748;28;95497;-55
2021/09/20 00:24:10;;;;;;;6.47;1.40;;;15.70;71.00;;;;;;4989403;28;98009;-55
2021/09/20 00:26:42;;;;;;;2.78;1.40;;;15.70;71.10;;;;;;5020061;27;95604;-57
2021/09/20 00:29:12;;;;;;;4.18;1.25;;;15.70;70.90;;;;;;4989993;28;95736;-55
2021/09/20 00:31:43;;;;;;;3.55;1.52;;;15.60;70.60;;;;;;4987556;28;101074;-55
2021/09/20 00:34:14;;;;;;;5.72;1.33;;;15.70;70.90;;;;;;4986962;28;95801;-54
2021/09/20 00:36:44;;;;;;;4.00;1.50;;;15.60;70.60;;;;;;5018495;27;95936;-56
2021/09/20 00:39:14;;;;;;;5.20;1.58;;;15.70;70.60;;;;;;4982831;28;95255;-55
2021/09/20 00:41:45;;;;;;;4.57;1.30;;;15.60;70.70;;;;;;4983894;28;96085;-55
2021/09/20 00:44:16;;;;;;;4.65;0.98;;;15.70;70.90;;;;;;4988917;28;95880;-54
2021/09/20 00:46:46;;;;;;;6.28;1.83;;;15.70;70.80;;;;;;4985028;28;95822;-54
2021/09/20 00:49:16;;;;;;;4.50;1.08;;;15.80;70.90;;;;;;4988925;28;95877;-55
2021/09/20 00:51:49;;;;;;;4.80;1.58;;;15.70;71.00;;;;;;4987382;28;95892;-57
2021/09/20 00:54:22;;;;;;;4.20;1.55;;;15.80;70.80;;;;;;4987185;28;99335;-56
2021/09/20 00:56:54;;;;;;;6.15;2.78;;;15.80;70.80;;;;;;4986110;28;95964;-55
2021/09/20 00:59:25;;;;;;;5.50;3.45;;;15.80;70.70;;;;;;4988864;28;95221;-58
2021/09/20 01:01:56;;;;;;;9.35;4.88;;;15.80;70.80;;;;;;4973512;28;95661;-53
2021/09/20 01:04:27;;;;;;;11.82;6.25;;;15.80;70.70;;;;;;4976261;28;95937;-57
2021/09/20 01:06:58;;;;;;;10.52;7.10;;;15.80;70.80;;;;;;4979882;28;95945;-55
2021/09/20 01:09:29;;;;;;;9.35;6.38;;;15.80;70.70;;;;;;4976612;28;95931;-55
2021/09/20 01:12:00;;;;;;;;;;;15.90;70.80;;;;;;4983462;28;95758;-57
2021/09/20 01:14:32;;;;;;;10.80;5.87;;;15.90;70.70;;;;;;4978687;28;97874;-54
2021/09/20 01:17:04;;;;;;;8.23;5.60;;;15.90;70.70;;;;;;4973941;28;97659;-48
2021/09/20 01:19:35;;;;;;;6.20;4.72;;;16.00;70.70;;;;;;4985087;28;96127;-53
2021/09/20 01:22:13;;;;;;;7.13;4.55;;;16.00;70.70;;;;;;4979000;28;95918;-55
2021/09/20 01:24:44;;;;;;;4.70;4.00;;;16.00;70.60;;;;;;4983973;28;95805;-49
2021/09/20 01:27:16;;;;;;;7.03;4.57;;;16.10;70.60;;;;;;4982742;28;96100;-50
2021/09/20 01:29:47;;;;;;;6.00;3.83;;;16.10;70.50;;;;;;4980456;28;95903;-49
2021/09/20 01:32:18;;;;;;;4.82;3.80;;;16.10;70.30;;;;;;4976224;28;96004;-49
2021/09/20 01:34:49;;;;;;;;;;;16.20;70.20;;;;;;4976740;28;96508;-54
2021/09/20 01:37:19;;;;;;;5.90;3.20;;;16.20;70.10;;;;;;4985950;28;95754;-54
2021/09/20 01:39:49;;;;;;;4.15;2.80;;;16.20;70.00;;;;;;4986343;28;95581;-54
2021/09/20 01:42:20;;;;;;;5.78;3.05;;;16.20;69.80;;;;;;4987660;28;96160;-48
2021/09/20 01:44:51;;;;;;;5.53;2.90;;;16.30;69.80;;;;;;4985040;28;95922;-50
2021/09/20 01:47:22;;;;;;;5.75;2.80;;;16.30;69.60;;;;;;4986843;27;96554;-55
2021/09/20 01:49:54;;;;;;;6.90;3.40;;;16.30;69.60;;;;;;4985563;28;95796;-49
2021/09/20 01:52:24;;;;;;;4.93;3.30;;;16.30;69.60;;;;;;4989046;28;95787;-48
2021/09/20 01:54:56;;;;;;;7.38;4.10;;;16.30;69.60;;;;;;4989084;28;95894;-54
2021/09/20 01:57:28;;;;;;;5.80;3.70;;;16.40;69.80;;;;;;4981632;28;95768;-48
2021/09/20 02:00:00;;;;;;;6.07;4.03;;;16.40;69.80;;;;;;4988756;28;95775;-53
2021/09/20 02:02:39;;;;;;;7.97;4.07;;;16.40;69.90;;;;;;4980671;28;96096;-57
2021/09/20 02:05:11;;;;;;;;;;;16.40;69.90;;;;;;4981400;28;95863;-54
2021/09/20 02:07:43;;;;;;;5.78;3.83;;;16.40;69.80;;;;;;4983386;28;95586;-56
2021/09/20 02:10:16;;;;;;;6.07;3.78;;;16.40;69.80;;;;;;4983035;28;96198;-54
2021/09/20 02:12:47;;;;;;;5.72;3.70;;;16.40;70.00;;;;;;4985422;28;95959;-55
2021/09/20 02:15:18;;;;;;;5.30;3.58;;;16.40;70.00;;;;;;4978969;28;96433;-53
2021/09/20 02:17:49;;;;;;;7.72;3.17;;;16.40;70.00;;;;;;4972008;28;95973;-49
2021/09/20 02:20:21;;;;;;;;;;;16.40;69.70;;;;;;4983383;28;96290;-56
2021/09/20 02:22:51;;;;;;;9.50;3.30;;;16.30;69.60;;;;;;5017544;27;95867;-55
2021/09/20 02:25:23;;;;;;;6.25;3.70;;;16.30;69.60;;;;;;4982514;28;95842;-49
2021/09/20 02:27:54;;;;;;;4.45;2.72;;;16.30;69.60;;;;;;4988336;28;95605;-58
2021/09/20 02:30:25;;;;;;;6.85;3.08;;;16.30;69.60;;;;;;4970304;28;96428;-54
2021/09/20 02:32:56;;;;;;;4.97;2.92;;;16.30;70.30;;;;;;4986833;28;97871;-55
2021/09/20 02:35:27;;;;;;;5.40;3.28;;;16.30;70.50;;;;;;4985209;28;98827;-57
2021/09/20 02:37:57;;;;;;;4.35;2.70;;;16.40;70.60;;;;;;4990878;28;95797;-59
2021/09/20 02:40:27;;;;;;;3.53;2.95;;;16.40;70.80;;;;;;4991955;28;96152;-59
2021/09/20 02:42:59;;;;;;;4.60;2.55;;;16.60;70.90;;;;;;4990224;28;96210;-57
2021/09/20 02:45:30;;;;;;;4.13;2.47;;;16.70;70.70;;;;;;4985570;28;96517;-58
2021/09/20 02:48:00;;;;;;;3.22;2.38;;;16.90;70.60;;;;;;4988024;28;102333;-57
2021/09/20 02:50:32;;;;;;;3.20;2.60;;;17.10;70.20;;;;;;4990388;28;95564;-58
2021/09/20 02:53:06;;;;;;;3.00;2.45;;;17.30;70.00;;;;;;4992409;28;96007;-58
2021/09/20 02:55:37;;;;;;;3.00;2.22;;;17.40;69.70;;;;;;4989702;28;96693;-58
2021/09/20 02:58:11;;;;;;;3.95;2.33;;;17.60;69.50;;;;;;4988370;28;95899;-57
2021/09/20 03:00:46;;;;;;;3.92;2.63;;;17.80;69.30;;;;;;4984469;28;95879;-53
2021/09/20 03:03:17;;;;;;;3.45;2.15;;;17.90;69.10;;;;;;5021318;28;95992;-60
2021/09/20 03:05:49;;;;;;;3.05;1.92;;;18.00;69.00;;;;;;4988465;28;96287;-55
2021/09/20 03:08:22;;;;;;;2.05;1.67;;;18.10;69.00;;;;;;4987476;28;96085;-58
2021/09/20 03:10:54;;;;;;;1.92;1.63;;;18.20;68.80;;;;;;4985876;28;96019;-53
2021/09/20 03:13:27;;;;;;;2.70;2.00;;;18.30;68.70;;;;;;4990765;28;95874;-57
2021/09/20 03:16:00;;;;;;;2.95;1.88;;;18.40;68.50;;;;;;4985879;28;97475;-54
2021/09/20 03:18:33;;;;;;;2.83;1.85;;;18.50;68.30;;;;;;4988646;28;97428;-52
2021/09/20 03:21:02;;;;;;;2.28;1.60;;;18.70;68.20;;;;;;4988724;28;96358;-51
2021/09/20 03:23:32;;;;;;;2.35;1.77;;;18.70;68.00;;;;;;4989137;28;96074;-59
2021/09/20 03:26:02;;;;;;;2.13;1.60;;;18.80;68.00;;;;;;4988360;28;95998;-53
2021/09/20 03:28:33;;;;;;;2.10;1.60;;;18.90;67.90;;;;;;4987756;28;97122;-56
2021/09/20 03:31:05;;;;;;;1.98;1.55;;;19.00;67.70;;;;;;4982950;28;95919;-50
2021/09/20 03:33:36;;;;;;;2.42;1.88;;;19.10;67.50;;;;;;4988352;28;96056;-53
2021/09/20 03:36:07;;;;;;;2.42;1.80;;;19.20;67.30;;;;;;4987990;28;96235;-54
2021/09/20 03:38:38;;;;;;;2.00;1.40;;;19.20;67.30;;;;;;4985524;28;96465;-50
2021/09/20 03:41:10;;;;;;;2.05;1.40;;;19.30;67.20;;;;;;4987642;28;95929;-55
2021/09/20 03:43:41;;;;;;;2.45;1.33;;;19.50;58.40;;;;;;4988610;28;95715;-52
2021/09/20 03:46:11;;;;;;;2.55;1.80;;;19.50;67.00;;;;;;4983521;28;95867;-53
2021/09/20 03:48:42;;;;;;;1.88;1.55;;;19.50;66.80;;;;;;4987981;28;96370;-53
2021/09/20 03:51:14;;;;;;;2.28;1.75;;;19.60;66.60;;;;;;4988524;28;95702;-53
2021/09/20 03:53:46;;;;;;;1.80;1.60;;;19.70;66.60;;;;;;4984299;28;95868;-53
2021/09/20 03:56:19;;;;;;;1.60;1.23;;;19.70;66.60;;;;;;4987099;28;95525;-50
2021/09/20 03:58:53;;;;;;;1.52;1.42;;;19.80;66.50;;;;;;4987682;28;95355;-51
2021/09/20 04:01:27;;;;;;;1.40;1.30;;;19.90;66.50;;;;;;4983478;28;96132;-54
2021/09/20 04:04:00;;;;;;;1.90;1.50;;;19.90;66.10;;;;;;4985657;28;95497;-53
2021/09/20 04:06:33;;;;;;;1.30;1.20;;;20.00;66.10;;;;;;4987053;28;95878;-53
2021/09/20 04:09:05;;;;;;;1.42;1.33;;;20.00;66.00;;;;;;4976622;28;96378;-55
2021/09/20 04:11:40;;;;;;;7.43;2.22;;;20.10;65.80;;;;;;4981176;28;95671;-54
2021/09/20 04:14:13;;;;;;;3.28;1.80;;;20.00;60.50;;;;;;4983704;28;95680;-50
2021/09/20 04:16:46;;;;;;;3.65;2.00;;;19.70;60.60;;;;;;4978436;28;95988;-52
2021/09/20 04:19:17;;;;;;;3.00;2.58;;;19.40;61.30;;;;;;4980378;28;95876;-52
2021/09/20 04:21:47;;;;;;;2.83;1.80;;;19.20;61.90;;;;;;4980165;28;96026;-54
2021/09/20 04:24:18;;;;;;;2.30;1.83;;;19.10;62.30;;;;;;4983444;28;96465;-53
2021/09/20 04:26:49;;;;;;;2.97;1.90;;;18.90;62.60;;;;;;4981462;28;96602;-52
2021/09/20 04:29:20;;;;;;;3.10;1.63;;;18.90;53.90;;;;;;4975043;28;96525;-54
2021/09/20 04:31:51;;;;;;;;;;;18.70;63.10;;;;;;4973233;28;95267;-53
2021/09/20 04:34:21;;;;;;;2.50;1.50;;;18.60;63.30;;;;;;4976444;28;95957;-52
2021/09/20 04:36:51;;;;;;;3.47;1.88;;;18.60;63.50;;;;;;4978857;28;98627;-56
2021/09/20 04:39:21;;;;;;;2.97;1.77;;;18.50;63.70;;;;;;4977583;28;96494;-52
2021/09/20 04:41:51;;;;;;;2.95;1.95;;;18.40;63.90;;;;;;4980227;28;95975;-53
2021/09/20 04:44:22;;;;;;;2.10;1.75;;;18.40;64.10;;;;;;4980791;28;97069;-57
2021/09/20 04:46:52;;;;;;;1.97;1.50;;;18.30;64.20;;;;;;4974848;28;95999;-53
2021/09/20 04:49:22;;;;;;;3.88;1.70;;;18.30;64.40;;;;;;4982711;28;98321;-54
2021/09/20 04:51:54;;;;;;;3.13;1.40;;;18.20;64.50;;;;;;4984085;28;95852;-52
2021/09/20 04:54:26;;;;;;;2.95;1.80;;;18.20;64.70;;;;;;4982059;28;95896;-52
2021/09/20 04:56:59;;;;;;;1.65;1.33;;;18.20;64.90;;;;;;4982436;28;96602;-53
2021/09/20 04:59:34;;;;;;;1.88;1.63;;;18.30;64.90;;;;;;4982172;28;96641;-51
2021/09/20 05:02:05;;;;;;;1.38;1.25;;;18.30;65.00;;;;;;4976165;28;95991;-53
2021/09/20 05:04:37;;;;;;;2.50;1.70;;;18.30;65.00;;;;;;4981475;28;95304;-52
2021/09/20 05:07:08;;;;;;;2.33;1.20;;;18.30;65.00;;;;;;4982545;28;95943;-54
2021/09/20 05:09:38;;;;;;;2.58;1.45;;;18.30;65.00;;;;;;4974895;28;96351;-53
2021/09/20 05:12:10;;;;;;;;;;;18.30;65.00;;;;;;4983387;28;95868;-53
2021/09/20 05:14:41;;;;;;;2.88;1.40;;;18.30;64.90;;;;;;4982968;28;95599;-52
2021/09/20 05:17:13;;;;;;;1.98;1.30;;;18.30;64.90;;;;;;4977987;28;96179;-51
2021/09/20 05:19:44;;;;;;;1.48;1.38;;;18.40;65.00;;;;;;4981131;28;97281;-54
2021/09/20 05:22:14;;;;;;;4.15;1.90;;;18.30;64.90;;;;;;4981913;28;96336;-51
2021/09/20 05:24:44;;;;;;;2.08;1.40;;;18.30;64.90;;;;;;4984189;28;96135;-51
2021/09/20 05:27:15;;;;;;;1.90;1.23;;;18.30;65.60;;;;;;4984018;28;95700;-52
2021/09/20 05:29:45;;;;;;;1.80;1.20;;;18.30;65.00;;;;;;4983140;28;95824;-53
2021/09/20 05:32:17;;;;;;;1.55;1.10;;;18.40;65.00;;;;;;4977166;28;95929;-51
2021/09/20 05:34:48;;;;;;;1.05;0.95;;;18.30;64.90;;;;;;4982683;28;95332;-49
2021/09/20 05:37:18;;;;;;;1.60;1.15;;;18.30;65.00;;;;;;4982277;28;95857;-50
2021/09/20 05:39:48;;;;;;;1.70;1.02;;;18.30;65.20;;;;;;4983182;28;96512;-56
2021/09/20 05:42:21;;;;;;;3.25;1.27;;;18.20;65.40;;;;;;4983696;28;95695;-53
2021/09/20 05:44:52;;;;;;;;;;;18.20;65.40;;;;;;4982675;28;95666;-55
2021/09/20 05:47:23;;;;;;;1.85;1.08;;;18.20;65.60;;;;;;4977650;28;98221;-50
2021/09/20 05:49:55;;;;;;;1.98;1.20;;;18.20;65.50;;;;;;4982594;28;97622;-51
2021/09/20 05:52:26;;;;;;;7.15;4.05;;;18.10;65.50;;;;;;4981030;28;96043;-50
2021/09/20 05:54:57;;;;;;;12.43;6.90;;;18.10;65.40;;;;;;5014699;27;96066;-55
2021/09/20 05:57:28;;;;;;;14.00;7.97;;;18.10;65.40;;;;;;4982735;28;95892;-50
2021/09/20 06:00:00;;;;;;;19.17;10.63;;;18.10;65.60;;;;;;4981390;28;95748;-52
2021/09/20 06:02:39;;;;;;;16.30;8.60;;;18.10;65.60;;;;;;4978521;28;95831;-50
2021/09/20 06:05:14;;;;;;;16.35;9.18;;;18.00;65.40;;;;;;4981382;28;96097;-51
2021/09/20 06:07:46;;;;;;;14.95;9.80;;;18.00;65.40;;;;;;4976384;28;96057;-56
2021/09/20 06:10:18;;;;;;;;;;;18.00;65.40;;;;;;4976684;28;96394;-51
2021/09/20 06:12:50;;;;;;;16.70;8.88;;;18.00;65.50;;;;;;4984111;28;97167;-49
2021/09/20 06:15:21;;;;;;;14.93;9.38;;;18.00;65.40;;;;;;4978941;28;97526;-49
2021/09/20 06:17:52;;;;;;;19.08;9.23;;;18.00;65.40;;;;;;4981244;28;97423;-47
2021/09/20 06:20:25;;;;;;;16.38;8.98;;;18.00;65.40;;;;;;4983099;28;95728;-50
2021/09/20 06:22:55;;;;;;;13.65;8.20;;;17.90;65.30;;;;;;4981185;28;95704;-49
2021/09/20 06:25:25;;;;;;;15.05;8.18;;;18.00;65.30;;;;;;4982242;28;96744;-49
2021/09/20 06:27:55;;;;;;;13.98;7.50;;;18.00;65.30;;;;;;4983180;28;97479;-53
2021/09/20 06:30:26;;;;;;;15.83;6.90;;;18.00;65.40;;;;;;4978865;28;95853;-50
2021/09/20 06:32:56;;;;;;;14.10;6.97;;;18.00;65.40;;;;;;4961945;28;96225;-49
2021/09/20 06:35:27;;;;;;;12.02;6.22;;;17.90;65.40;;;;;;4962699;28;96456;-55
2021/09/20 06:38:00;;;;;;;10.15;6.38;;;17.90;65.40;;;;;;4964248;28;97107;-49
2021/09/20 06:40:29;;;;;;;;;;;17.90;65.50;;;;;;4964021;28;96266;-51
2021/09/20 06:42:59;;;;;;;13.35;6.68;;;17.90;65.70;;;;;;4964062;28;96069;-50
2021/09/20 06:45:29;;;;;;;5.78;4.60;;;17.90;65.60;;;;;;4960805;28;96868;-49
2021/09/20 06:48:01;;;;;;;11.60;5.68;;;17.90;65.60;;;;;;4963941;28;99844;-49
2021/09/20 06:50:33;;;;;;;7.40;4.95;;;17.90;65.70;;;;;;4964797;28;95536;-49
2021/09/20 06:53:05;;;;;;;7.45;4.95;;;17.90;65.70;;;;;;4965711;28;96568;-53
2021/09/20 06:55:37;;;;;;;7.57;4.95;;;17.90;65.70;;;;;;4966211;28;95316;-53
2021/09/20 06:58:07;;;;;;;;;;;17.80;65.70;;;;;;4965097;28;96690;-50
2021/09/20 07:00:38;;;;;;;6.78;4.68;;;17.90;65.90;;;;;;4960674;28;96888;-51
2021/09/20 07:03:12;;;;;;;9.00;4.60;;;17.80;65.80;;;;;;4964831;28;95903;-49
2021/09/20 07:05:44;;;;;;;6.22;3.35;;;17.80;65.80;;;;;;4964799;28;95772;-52
2021/09/20 07:08:16;;;;;;;6.00;3.35;;;17.80;65.80;;;;;;4959775;28;96558;-49
2021/09/20 07:10:47;;;;;;;6.45;3.80;;;17.80;65.90;;;;;;4960426;28;96198;-51
2021/09/20 07:13:19;;;;;;;4.65;3.10;;;17.80;65.90;;;;;;4965905;28;95972;-49
2021/09/20 07:15:50;;;;;;;7.35;3.85;;;17.80;65.80;;;;;;4958969;28;95829;-49
2021/09/20 07:18:21;;;;;;;;;;;17.80;65.90;;;;;;4965621;28;95993;-47
2021/09/20 07:20:51;;;;;;;4.80;3.05;;;17.80;65.90;;;;;;4966390;28;95873;-50
2021/09/20 07:23:21;;;;;;;5.15;3.20;;;17.80;65.90;;;;;;4964949;28;96441;-50
2021/09/20 07:25:51;;;;;;;6.30;3.55;;;17.80;66.00;;;;;;4965098;28;95898;-47
2021/09/20 07:28:21;;;;;;;4.60;2.70;;;17.80;66.00;;;;;;4962961;28;95888;-48
2021/09/20 07:30:52;;;;;;;3.95;2.55;;;17.80;66.00;;;;;;4960505;28;96704;-48
2021/09/20 07:33:23;;;;;;;4.00;2.50;;;17.70;65.90;;;;;;4964062;28;95860;-53
2021/09/20 07:35:54;;;;;;;4.47;2.85;;;17.70;66.00;;;;;;4964982;28;95917;-50
2021/09/20 07:38:25;;;;;;;6.40;3.03;;;17.70;66.10;;;;;;4993714;28;95875;-50
2021/09/20 07:40:55;;;;;;;4.22;2.40;;;17.70;66.00;;;;;;4963693;28;96421;-49
2021/09/20 07:43:24;;;;;;;4.22;2.40;;;17.70;66.10;;;;;;4964270;28;95971;-50
2021/09/20 07:45:54;;;;;;;4.00;2.28;;;17.70;66.20;;;;;;4959202;28;96616;-52
2021/09/20 07:48:27;;;;;;;3.40;2.13;;;17.70;66.20;;;;;;4962122;28;95873;-49
2021/09/20 07:50:58;;;;;;;4.50;2.53;;;17.70;66.30;;;;;;4961753;28;95810;-50
2021/09/20 07:53:29;;;;;;;6.82;2.92;;;17.70;66.40;;;;;;4962915;28;95944;-49
2021/09/20 07:56:00;;;;;;;4.97;2.38;;;17.60;66.30;;;;;;4994153;28;95455;-50
2021/09/20 07:58:31;;;;;;;5.03;2.70;;;17.60;66.30;;;;;;4962879;28;97074;-49
2021/09/20 08:01:02;;;;;;;6.10;2.40;;;17.60;66.30;;;;;;4958336;28;97080;-49
2021/09/20 08:03:34;;;;;;;4.43;2.30;;;17.60;66.40;;;;;;4964638;28;96178;-49
2021/09/20 08:06:12;;;;;;;4.72;2.70;;;17.60;66.50;;;;;;4979344;28;95789;-50
2021/09/20 08:08:43;;;;;;;3.85;2.33;;;17.60;66.20;;;;;;4964578;28;96589;-49
2021/09/20 08:11:15;;;;;;;4.03;2.42;;;17.50;66.20;;;;;;4963701;28;96030;-52
2021/09/20 08:13:45;;;;;;;;;;;17.50;66.40;;;;;;4965834;28;96041;-48
2021/09/20 08:16:17;;;;;;;6.00;2.63;;;17.50;66.60;;;;;;4959248;28;95860;-50
2021/09/20 08:18:49;;;;;;;7.47;2.10;;;17.40;66.70;;;;;;4959973;28;95869;-51
2021/09/20 08:21:20;;;;;;;5.20;2.45;;;17.40;66.80;;;;;;4962686;28;96093;-52
2021/09/20 08:23:51;;;;;;;3.80;2.67;;;17.40;66.90;;;;;;4963614;28;95831;-50
2021/09/20 08:26:21;;;;;;;4.33;2.40;;;17.40;67.00;;;;;;4967844;28;95819;-50
2021/09/20 08:28:51;;;;;;;5.18;2.33;;;17.40;57.90;;;;;;4966100;28;96377;-50
2021/09/20 08:31:22;;;;;;;2.72;1.80;;;17.30;67.20;;;;;;4959843;28;95886;-50
2021/09/20 08:33:54;;;;;;;3.90;1.98;;;17.20;67.30;;;;;;4966465;28;95718;-49
2021/09/20 08:36:24;;;;;;;4.28;2.33;;;17.30;67.30;;;;;;4968182;28;95814;-50
2021/09/20 08:38:56;;;;;;;4.07;2.38;;;17.20;67.40;;;;;;4966049;28;96224;-50
2021/09/20 08:41:27;;;;;;;2.45;1.90;;;17.20;67.50;;;;;;4965821;28;95611;-51
2021/09/20 08:43:58;;;;;;;2.38;1.60;;;17.20;67.60;;;;;;4967591;28;95921;-50
2021/09/20 08:46:29;;;;;;;6.15;2.67;;;17.10;67.60;;;;;;4963229;28;97111;-50
2021/09/20 08:49:01;;;;;;;6.68;3.35;;;17.10;68.30;;;;;;4966296;28;95925;-49
2021/09/20 08:51:33;;;;;;;5.13;2.92;;;17.10;67.80;;;;;;4967437;28;95781;-50
2021/09/20 08:54:03;;;;;;;;;;;17.10;67.90;;;;;;4967087;28;95900;-49
2021/09/20 08:56:35;;;;;;;6.13;3.85;;;17.10;67.90;;;;;;4965488;28;95983;-50
2021/09/20 08:59:06;;;;;;;6.45;4.38;;;17.00;68.40;;;;;;4965958;28;95904;-49
2021/09/20 09:01:39;;;;;;;7.18;3.60;;;17.00;68.70;;;;;;4962681;28;96122;-49
2021/09/20 09:04:31;;;;;;;6.13;4.13;;;17.10;68.70;;;;;;4966830;28;95776;-51
2021/09/20 09:07:08;;;;;;;6.57;3.95;;;17.10;69.30;;;;;;4966599;28;95782;-49
2021/09/20 09:09:45;;;;;;;6.93;4.03;;;17.10;69.30;;;;;;4955709;28;95935;-50
2021/09/20 09:12:21;;;;;;;7.97;3.42;;;17.00;69.70;;;;;;4960562;28;95986;-50
2021/09/20 09:14:55;;;;;;;5.63;3.53;;;17.00;69.30;;;;;;4961878;28;95896;-49
2021/09/20 09:17:32;;;;;;;5.90;4.70;;;17.00;69.30;;;;;;4949335;28;95936;-49
2021/09/20 09:20:12;;;;;;;5.80;3.95;;;17.00;69.30;;;;;;4959431;28;95950;-51
2021/09/20 09:22:51;;;;;;;4.97;3.55;;;17.00;69.50;;;;;;4961046;28;95923;-49
2021/09/20 09:25:26;;;;;;;5.13;3.00;;;17.00;69.50;;;;;;4957760;28;95795;-49
2021/09/20 09:28:02;;;;;;;5.22;3.63;;;16.90;69.40;;;;;;4960742;28;95802;-49
2021/09/20 09:30:48;;;;;;;6.45;3.10;;;16.90;69.40;;;;;;4956867;28;96217;-51
2021/09/20 09:33:22;;;;;;;4.72;3.08;;;16.90;69.60;;;;;;4995097;28;96146;-49
2021/09/20 09:35:57;;;;;;;3.85;2.40;;;16.90;70.10;;;;;;4962465;28;98294;-50
2021/09/20 09:38:28;;;;;;;4.45;3.10;;;16.90;70.10;;;;;;4979502;28;95702;-50
2021/09/20 09:41:02;;;;;;;4.57;2.95;;;16.90;70.10;;;;;;4960927;28;96655;-54
2021/09/20 09:43:36;;;;;;;4.63;3.38;;;16.90;70.00;;;;;;4959652;28;95817;-51
2021/09/20 09:46:21;;;;;;;5.03;2.70;;;16.80;69.90;;;;;;4957191;28;96338;-49
2021/09/20 09:48:54;;;;;;;3.92;2.78;;;16.80;69.80;;;;;;4959501;28;95833;-50
2021/09/20 09:51:26;;;;;;;4.32;3.05;;;16.80;69.60;;;;;;4963631;28;96166;-53
2021/09/20 09:54:09;;;;;;;3.65;2.60;;;16.70;69.50;;;;;;4964623;28;95709;-49
2021/09/20 09:56:39;;;;;;;2.92;2.60;;;16.70;69.40;;;;;;4957701;28;95795;-49
2021/09/20 09:59:11;;;;;;;3.30;2.65;;;16.70;69.40;;;;;;4963388;28;96273;-50
2021/09/20 10:01:42;;;;;;;2.72;2.28;;;16.70;69.30;;;;;;4961547;28;96830;-51
2021/09/20 10:04:21;;;;;;;3.63;2.50;;;16.70;69.30;;;;;;4966116;28;95490;-50
2021/09/20 10:07:00;;;;;;;2.38;2.17;;;16.70;69.20;;;;;;4962483;28;95660;-52
2021/09/20 10:09:32;;;;;;;3.90;2.42;;;16.60;69.20;;;;;;4955931;28;95802;-49
2021/09/20 10:12:03;;;;;;;2.75;2.15;;;16.60;69.20;;;;;;4958155;28;96277;-49
2021/09/20 10:14:35;;;;;;;4.68;2.80;;;16.70;59.90;;;;;;4958935;28;96054;-50
2021/09/20 10:17:08;;;;;;;4.57;2.67;;;16.60;69.10;;;;;;4954083;28;95443;-50
2021/09/20 10:19:39;;;;;;;1.90;1.73;;;16.50;69.00;;;;;;4966769;28;95631;-49
2021/09/20 10:22:10;;;;;;;3.40;2.42;;;16.50;68.90;;;;;;4963555;28;96053;-53
2021/09/20 10:24:47;;;;;;;2.15;1.92;;;16.50;69.00;;;;;;4990069;28;96079;-50
2021/09/20 10:27:21;;;;;;;2.25;1.95;;;16.50;68.90;;;;;;4989892;28;95835;-50
2021/09/20 10:30:01;;;;;;;2.92;2.00;;;16.50;68.90;;;;;;4956526;28;96084;-50
2021/09/20 10:32:32;;;;;;;5.50;2.50;;;16.50;68.90;;;;;;4958649;28;96019;-53
2021/09/20 10:35:39;;;;;;;2.78;2.28;;;16.50;68.90;;;;;;4986839;28;95492;-51
2021/09/20 10:38:22;;;;;;;2.25;2.05;;;16.40;68.80;;;;;;4963627;28;95738;-53
2021/09/20 10:41:14;;;;;;;4.15;2.45;;;16.40;68.80;;;;;;4957002;28;95870;-50
2021/09/20 10:43:49;;;;;;;3.00;2.05;;;16.40;68.80;;;;;;4956433;28;96060;-50
2021/09/20 10:46:40;;;;;;;3.85;1.58;;;16.40;68.80;;;;;;4955604;28;95622;-53
2021/09/20 10:49:22;;;;;;;3.00;2.05;;;16.30;68.80;;;;;;4958258;28;95795;-49
2021/09/20 10:52:04;;;;;;;2.83;2.10;;;16.30;68.70;;;;;;4960487;28;95569;-49
2021/09/20 10:54:34;;;;;;;2.67;1.90;;;16.30;68.70;;;;;;4960609;28;96448;-51
2021/09/20 10:57:19;;;;;;;2.45;1.77;;;16.30;68.70;;;;;;4957790;28;96060;-50
2021/09/20 10:59:49;;;;;;;1.75;1.50;;;16.20;68.70;;;;;;4955096;28;95604;-54
2021/09/20 11:02:32;;;;;;;2.25;1.50;;;16.30;68.70;;;;;;4953708;28;95791;-51
2021/09/20 11:05:09;;;;;;;2.00;1.70;;;16.20;68.70;;;;;;4960198;28;95798;-51
2021/09/20 11:07:48;;;;;;;2.85;1.92;;;16.20;68.70;;;;;;4956859;28;96020;-51
2021/09/20 11:10:34;;;;;;;2.97;1.80;;;16.20;68.70;;;;;;4954297;28;96430;-51
2021/09/20 11:13:10;;;;;;;2.80;1.63;;;16.20;68.80;;;;;;4964062;28;95737;-51
2021/09/20 11:15:45;;;;;;;2.00;1.60;;;16.20;68.80;;;;;;4963473;28;95915;-54
2021/09/20 11:18:37;;;;;;;1.98;1.75;;;16.20;68.80;;;;;;4965492;28;95557;-51
2021/09/20 11:21:08;;;;;;;2.38;2.10;;;16.10;68.80;;;;;;4967216;28;96148;-52
2021/09/20 11:23:40;;;;;;;2.63;1.90;;;16.10;68.90;;;;;;4970837;28;95734;-51
2021/09/20 11:26:15;;;;;;;2.17;1.60;;;16.10;59.40;;;;;;4968229;28;96464;-52
2021/09/20 11:28:52;;;;;;;2.08;1.42;;;16.10;68.70;;;;;;4966085;28;95985;-51
2021/09/20 11:31:31;;;;;;;2.55;1.95;;;16.00;68.70;;;;;;4965277;28;95348;-52
2021/09/20 11:34:03;;;;;;;2.40;1.60;;;16.00;68.70;;;;;;5001693;28;95812;-52
2021/09/20 11:36:37;;;;;;;1.75;1.65;;;16.00;68.70;;;;;;4969357;28;96150;-51
2021/09/20 11:39:16;;;;;;;1.88;1.73;;;16.00;68.10;;;;;;4969326;28;96014;-51
2021/09/20 11:41:58;;;;;;;2.30;2.10;;;16.00;68.70;;;;;;4964892;28;96497;-50
2021/09/20 11:44:29;;;;;;;2.03;1.80;;;16.00;68.60;;;;;;4965080;28;95362;-56
2021/09/20 11:47:00;;;;;;;2.58;1.55;;;15.90;68.60;;;;;;4958474;28;96016;-53
2021/09/20 11:49:30;;;;;;;2.20;1.92;;;15.90;68.60;;;;;;4963203;28;98887;-53
2021/09/20 11:52:02;;;;;;;2.38;1.70;;;15.90;68.70;;;;;;4959629;28;95607;-51
2021/09/20 11:54:44;;;;;;;1.50;1.40;;;15.90;68.70;;;;;;4957433;28;95916;-55
2021/09/20 11:57:21;;;;;;;2.17;1.98;;;15.90;68.70;;;;;;4957190;28;95866;-55
2021/09/20 12:00:11;;;;;;;1.85;1.70;;;15.90;68.70;;;;;;4964489;28;97171;-52
2021/09/20 12:02:49;;;;;;;2.00;1.60;;;15.90;68.70;;;;;;4959419;28;95915;-52
2021/09/20 12:05:27;;;;;;;1.77;1.55;;;15.90;68.80;;;;;;4969021;28;95876;-51
2021/09/20 12:08:00;;;;;;;2.03;1.55;;;15.80;68.70;;;;;;4961146;28;95952;-52
2021/09/20 12:10:34;;;;;;;2.00;1.60;;;15.80;68.80;;;;;;4961445;28;95900;-54
2021/09/20 12:13:26;;;;;;;3.50;2.17;;;15.80;68.80;;;;;;4966116;28;95881;-55
2021/09/20 12:16:09;;;;;;;1.60;1.50;;;15.80;68.90;;;;;;4961042;28;95656;-56
2021/09/20 12:18:39;;;;;;;2.47;2.10;;;15.70;68.90;;;;;;4966062;28;95902;-54
2021/09/20 12:21:13;;;;;;;3.97;3.00;;;15.70;68.80;;;;;;4968997;28;95836;-51
2021/09/20 12:23:48;;;;;;;2.17;1.98;;;15.70;68.90;;;;;;4962229;28;95802;-54
2021/09/20 12:26:22;;;;;;;2.33;2.03;;;15.70;68.90;;;;;;4963026;28;95903;-53
2021/09/20 12:28:56;;;;;;;2.58;2.08;;;15.80;59.20;;;;;;4974024;28;98223;-56
2021/09/20 12:31:40;;;;;;;2.88;1.98;;;15.70;68.90;;;;;;4953880;28;95815;-57
2021/09/20 12:34:20;;;;;;;2.40;1.80;;;15.70;68.90;;;;;;4976863;28;95687;-52
2021/09/20 12:36:52;;;;;;;2.13;1.80;;;15.70;68.90;;;;;;4962952;28;95673;-55
2021/09/20 12:39:28;;;;;;;2.17;1.88;;;15.60;68.90;;;;;;4965611;28;95831;-53
2021/09/20 12:42:07;;;;;;;2.75;2.17;;;15.60;69.00;;;;;;4956795;28;95762;-53
2021/09/20 12:44:43;;;;;;;2.50;2.10;;;15.60;68.90;;;;;;4960173;28;95662;-53
2021/09/20 12:47:26;;;;;;;2.20;2.00;;;15.60;68.90;;;;;;4958400;28;96315;-54
2021/09/20 12:50:12;;;;;;;2.58;2.33;;;15.60;68.90;;;;;;4966957;28;96016;-56
2021/09/20 12:52:49;;;;;;;3.00;2.25;;;15.60;69.00;;;;;;4961600;28;95556;-54
2021/09/20 12:55:36;;;;;;;2.20;1.75;;;15.60;69.00;;;;;;4968528;28;95931;-54
2021/09/20 12:58:23;;;;;;;2.45;2.17;;;15.60;68.90;;;;;;4966641;28;95451;-56
2021/09/20 13:00:58;;;;;;;2.38;2.10;;;15.60;68.90;;;;;;4960262;28;96507;-55
2021/09/20 13:03:34;;;;;;;2.33;1.85;;;15.50;68.90;;;;;;4962351;28;95304;-53
2021/09/20 13:06:14;;;;;;;2.42;2.08;;;15.50;68.90;;;;;;4961740;28;96130;-56
2021/09/20 13:09:03;;;;;;;2.35;1.83;;;15.50;68.90;;;;;;4960834;28;97442;-56
2021/09/20 13:11:46;;;;;;;3.25;2.20;;;15.50;69.00;;;;;;4954145;28;96259;-55
2021/09/20 13:14:21;;;;;;;1.92;1.73;;;15.50;69.00;;;;;;4954690;28;95675;-55
2021/09/20 13:16:53;;;;;;;2.70;2.15;;;15.50;69.00;;;;;;4952620;28;95530;-54
2021/09/20 13:19:25;;;;;;;1.92;1.75;;;15.50;69.00;;;;;;4961232;28;96017;-54
2021/09/20 13:22:06;;;;;;;2.15;1.95;;;15.40;68.90;;;;;;4955173;28;96498;-54